Latest Weather Observations for Dennes Point

IDT60801

Issued at 4:02 pm EST Monday 21 August 2017 (issued every 30 minutes, with the page automatically refreshed every 10 minutes)

About weather observations | Map of weather stations | Latest weather observations for TAS | Other Formats
Station Details ID: 094255 Name: DENNES POINT Lat: -43.06 Lon: 147.36 Height: 5.67 m
Data from the previous 72 hours. | See also: Recent months at Dennes Point
Date/Time
EST
Temp
°C
App
Temp
°C
Dew
Point
°C
Rel
Hum
%
Delta-T
°C
Wind Press
QNH
hPa
Press
MSL
hPa
Rain since
9am
mm
Dir  Spd
km/h
Gust
km/h
Spd
kts
Gust
kts
21/04:00pm 10.9 9.3 2.5 56 3.6 CALM 0 0 0 0 1012.9 1012.9 0.0
21/03:30pm 11.5 9.5 4.5 62 3.2 ENE 4 6 2 3 1012.8 1012.8 0.0
21/03:00pm 11.8 9.6 5.2 64 3.0 N 6 7 3 4 1012.8 1012.8 0.0
21/02:30pm 10.7 8.1 4.2 64 2.9 N 7 9 4 5 1012.9 1012.9 0.0
21/02:00pm 10.4 7.1 4.3 66 2.7 N 11 13 6 7 1013.1 1013.1 0.0
21/01:30pm 10.4 8.0 4.5 67 2.6 N 6 7 3 4 1013.4 1013.4 0.0
21/01:00pm 11.2 8.6 3.3 58 3.5 WNW 6 7 3 4 1013.6 1013.6 0.0
21/12:30pm 11.4 9.3 3.7 59 3.4 WNW 4 6 2 3 1013.9 1013.9 0.0
21/12:00pm 10.8 8.2 3.1 59 3.3 WSW 6 7 3 4 1014.2 1014.2 0.0
21/11:30am 9.7 8.0 3.9 67 2.5 NNW 2 4 1 2 1014.6 1014.6 0.0
21/11:00am 9.1 7.3 3.7 69 2.3 NW 2 4 1 2 1015.0 1015.0 0.0
21/10:30am 9.1 6.9 3.5 68 2.4 NW 4 6 2 3 1015.2 1015.2 0.0
21/10:00am 7.3 4.6 3.9 79 1.5 W 7 9 4 5 1015.3 1015.3 0.0
21/09:30am 7.2 4.3 4.5 83 1.2 WSW 9 13 5 7 1015.4 1015.4 0.0
21/09:00am 7.0 3.9 3.8 80 1.4 NNE 9 11 5 6 1015.6 1015.6 0.0
21/08:30am 6.3 2.8 3.5 82 1.2 N 11 15 6 8 1015.9 1015.9 0.0
21/08:00am 6.5 4.0 3.5 81 1.3 N 6 9 3 5 1015.9 1015.9 0.0
21/07:30am 6.1 3.3 3.1 81 1.2 N 7 9 4 5 1015.6 1015.6 0.0
21/07:00am 5.3 3.4 3.0 85 0.9 NNW 2 4 1 2 1015.3 1015.3 0.0
21/06:30am 5.0 2.6 2.4 83 1.1 S 4 7 2 4 1015.2 1015.2 0.0
21/06:00am 4.1 1.2 2.6 90 0.6 SSW 7 9 4 5 1015.4 1015.4 0.0
21/05:30am 4.1 1.2 2.6 90 0.6 SSW 7 9 4 5 1015.5 1015.5 0.0
21/05:00am 5.7 3.2 3.7 87 0.8 W 6 9 3 5 1015.4 1015.4 0.0
21/04:30am 6.0 4.2 3.7 85 1.0 NE 2 9 1 5 1015.5 1015.5 0.0
21/04:00am 6.4 4.0 4.2 86 0.9 NNE 6 7 3 4 1015.8 1015.8 0.0
21/03:30am 4.9 2.5 2.3 83 1.0 SW 4 4 2 2 1015.8 1015.8 0.0
21/03:00am 6.5 5.1 3.3 80 1.3 CALM 0 0 0 0 1015.9 1015.9 0.0
21/02:30am 6.8 4.6 3.1 77 1.5 SW 4 6 2 3 1016.1 1016.1 0.0
21/02:00am 6.3 3.6 2.9 79 1.4 SSW 6 7 3 4 1016.4 1016.4 0.0
21/01:30am 5.8 2.4 3.8 87 0.8 S 11 13 6 7 1016.6 1016.6 0.0
21/01:00am 5.8 3.1 3.5 85 1.0 SSW 7 13 4 7 1016.8 1016.8 0.0
21/12:30am 7.8 5.2 4.2 78 1.6 NNW 7 11 4 6 1016.9 1016.9 0.0
21/12:00am 8.4 5.3 5.7 83 1.2 N 11 17 6 9 1017.0 1017.0 0.0
 
Date/Time
EST
Temp
°C
App
Temp
°C
Dew
Point
°C
Rel
Hum
%
Delta-T
°C
Wind Press
QNH
hPa
Press
MSL
hPa
Rain since
9am
mm
Dir  Spd
km/h
Gust
km/h
Spd
kts
Gust
kts
20/11:30pm 7.1 5.3 3.3 77 1.6 NNW 2 4 1 2 1017.4 1017.4 0.0
20/11:00pm 8.1 3.9 3.8 74 1.8 W 15 17 8 9 1017.5 1017.5 0.0
20/10:30pm 9.0 5.7 4.4 73 2.0 WNW 11 15 6 8 1017.9 1017.9 0.0
20/10:00pm 9.0 6.1 4.8 75 1.9 WSW 9 13 5 7 1018.1 1018.1 0.0
20/09:30pm 8.1 5.6 4.7 79 1.5 SSW 7 9 4 5 1018.4 1018.4 0.0
20/09:00pm 7.9 5.4 5.0 82 1.3 SW 7 9 4 5 1018.2 1018.2 0.0
20/08:30pm 8.2 6.2 4.2 76 1.7 SW 4 6 2 3 1018.0 1018.0 0.0
20/08:00pm 7.8 5.1 3.5 74 1.8 SSW 7 9 4 5 1017.8 1017.8 0.0
20/07:30pm 8.6 6.4 3.4 70 2.2 SW 4 6 2 3 1017.7 1017.7 0.0
20/07:00pm 9.6 8.2 3.4 65 2.7 CALM 0 0 0 0 1017.9 1017.9 0.0
20/06:30pm 9.8 8.4 3.5 65 2.7 CALM 0 0 0 0 1018.0 1018.0 0.0
20/06:00pm 9.7 8.0 3.9 67 2.5 SW 2 4 1 2 1017.7 1017.7 0.0
20/05:30pm 9.6 8.0 4.4 70 2.3 WNW 2 6 1 3 1017.7 1017.7 0.0
20/05:00pm 10.7 7.8 4.4 65 2.8 WSW 9 15 5 8 1017.8 1017.8 0.0
20/04:30pm 11.4 9.3 5.9 69 2.6 ESE 6 7 3 4 1017.9 1017.9 0.0
20/04:00pm 11.2 9.7 4.9 65 2.9 ENE 2 4 1 2 1017.9 1017.9 0.0
20/03:30pm 11.4 9.6 5.3 66 2.8 NNE 4 7 2 4 1017.9 1017.9 0.0
20/03:00pm 11.7 9.3 5.1 64 3.0 NNE 7 9 4 5 1018.0 1018.0 0.0
20/02:30pm 11.0 8.1 4.7 65 2.8 NNE 9 11 5 6 1018.2 1018.2 0.0
20/02:00pm 11.3 8.7 4.3 62 3.1 NNE 7 9 4 5 1018.5 1018.5 0.0
20/01:30pm 12.2 9.8 4.2 58 3.6 NNW 6 9 3 5 1018.7 1018.7 0.0
20/01:00pm 12.3 9.0 4.5 59 3.5 WSW 11 17 6 9 1019.2 1019.2 0.0
20/12:30pm 12.3 8.9 4.0 57 3.7 W 11 17 6 9 1019.7 1019.7 0.0
20/12:00pm 11.8 8.4 4.1 59 3.4 W 11 17 6 9 1020.2 1020.2 0.0
20/11:30am 11.3 8.7 4.1 61 3.2 NW 7 13 4 7 1020.8 1020.8 0.0
20/11:00am 9.7 5.3 4.7 71 2.2 N 17 20 9 11 1021.1 1021.1 0.0
20/10:30am 9.1 4.3 4.5 73 2.0 N 19 26 10 14 1021.4 1021.4 0.0
20/10:00am 8.7 4.2 4.3 74 1.9 N 17 20 9 11 1021.5 1021.5 0.0
20/09:30am 7.8 3.3 4.0 77 1.6 N 17 20 9 11 1021.7 1021.7 0.0
20/09:00am 7.2 2.2 3.6 78 1.5 N 19 22 10 12 1021.9 1021.9 0.0
20/08:30am 7.0 3.1 3.6 79 1.4 N 13 17 7 9 1022.0 1022.0 0.0
20/08:00am 6.7 2.8 3.5 80 1.3 N 13 17 7 9 1022.0 1022.0 0.0
20/07:30am 6.5 3.6 1.4 70 2.0 W 6 9 3 5 1022.0 1022.0 0.0
20/07:00am 6.3 2.3 2.6 77 1.5 NNW 13 17 7 9 1021.9 1021.9 0.0
20/06:30am 6.0 2.0 3.0 81 1.2 N 13 17 7 9 1021.7 1021.7 0.0
20/06:00am 7.0 2.7 3.1 76 1.6 N 15 20 8 11 1021.7 1021.7 0.0
20/05:30am 6.7 1.0 3.1 78 1.5 N 22 26 12 14 1021.7 1021.7 0.0
20/05:00am 6.6 1.5 3.2 79 1.4 N 19 24 10 13 1021.7 1021.7 0.0
20/04:30am 7.0 4.1 2.7 74 1.8 N 7 15 4 8 1021.8 1021.8 0.0
20/04:00am 6.2 1.9 3.0 80 1.3 N 15 19 8 10 1021.8 1021.8 0.0
20/03:30am 6.6 1.9 2.9 77 1.5 N 17 20 9 11 1021.9 1021.9 0.0
20/03:00am 6.5 2.2 3.3 80 1.3 N 15 19 8 10 1022.0 1022.0 0.0
20/02:30am 6.7 2.9 1.8 71 2.0 NNW 11 15 6 8 1022.1 1022.1 0.0
20/02:00am 6.9 3.5 1.8 70 2.1 N 9 13 5 7 1022.4 1022.4 0.0
20/01:30am 7.0 2.9 2.1 71 2.0 NNW 13 19 7 10 1022.5 1022.5 0.0
20/01:00am 6.9 3.5 1.6 69 2.1 NNW 9 11 5 6 1022.7 1022.7 0.0
20/12:30am 7.0 4.2 1.9 70 2.1 N 6 7 3 4 1023.0 1023.0 0.0
20/12:00am 7.2 4.3 1.5 67 2.3 NNW 6 7 3 4 1023.0 1023.0 0.0
 
Date/Time
EST
Temp
°C
App
Temp
°C
Dew
Point
°C
Rel
Hum
%
Delta-T
°C
Wind Press
QNH
hPa
Press
MSL
hPa
Rain since
9am
mm
Dir  Spd
km/h
Gust
km/h
Spd
kts
Gust
kts
19/11:30pm 7.1 4.0 1.6 68 2.2 NW 7 13 4 7 1022.8 1022.8 0.0
19/11:00pm 7.0 3.4 0.9 65 2.4 NW 9 13 5 7 1022.8 1022.8 0.0
19/10:30pm 7.2 3.0 1.7 68 2.2 NW 13 15 7 8 1022.9 1022.9 0.0
19/10:00pm 7.0 3.2 1.5 68 2.2 WNW 11 13 6 7 1023.0 1023.0 0.0
19/09:30pm 6.8 2.6 1.7 70 2.1 WNW 13 17 7 9 1023.0 1023.0 0.0
19/09:00pm 6.1 2.6 1.2 71 1.9 W 9 11 5 6 1023.2 1023.2 0.0
19/08:30pm 6.6 2.4 1.9 72 1.9 W 13 17 7 9 1023.2 1023.2 0.0
19/08:00pm 6.5 2.4 2.2 74 1.7 W 13 17 7 9 1023.3 1023.3 0.0
19/07:30pm 6.8 2.0 2.7 75 1.7 W 17 20 9 11 1023.5 1023.5 0.0
19/07:00pm 6.5 2.5 2.8 77 1.5 W 13 17 7 9 1023.5 1023.5 0.0
19/06:30pm 7.0 3.3 2.1 71 2.0 W 11 13 6 7 1023.6 1023.6 0.0
19/06:00pm 7.2 3.8 1.9 69 2.2 SW 9 13 5 7 1023.2 1023.2 0.0
19/05:30pm 7.8 4.0 1.6 65 2.5 SW 11 15 6 8 1023.1 1023.1 0.0
19/05:00pm 8.7 3.8 2.1 63 2.7 WSW 17 20 9 11 1023.1 1023.1 0.0
19/04:30pm 8.8 2.6 2.2 63 2.8 SW 24 32 13 17 1022.8 1022.8 0.0
19/04:00pm 9.3 3.8 1.9 60 3.1 SW 20 30 11 16 1022.7 1022.7 0.0
19/03:30pm 9.8 3.3 2.6 61 3.1 WSW 26 37 14 20 1022.4 1022.4 0.0
19/03:00pm 10.3 4.0 1.7 55 3.6 WSW 24 32 13 17 1022.3 1022.3 0.0
19/02:30pm 10.2 3.8 3.0 61 3.1 WSW 26 35 14 19 1022.2 1022.2 0.0
19/02:00pm 9.7 4.1 3.2 64 2.8 WSW 22 30 12 16 1022.3 1022.3 0.0
19/01:30pm 9.5 3.8 2.6 62 2.9 SW 22 32 12 17 1022.2 1022.2 0.0
19/01:00pm 10.2 3.1 1.6 55 3.6 WSW 28 37 15 20 1022.2 1022.2 0.0
19/12:30pm 9.8 3.6 1.9 58 3.3 WSW 24 32 13 17 1022.1 1022.1 0.0
19/12:00pm 9.6 4.1 1.8 58 3.2 SW 20 32 11 17 1022.2 1022.2 0.0
19/11:30am 9.3 3.1 1.9 60 3.1 WSW 24 33 13 18 1022.6 1022.6 0.0
19/11:00am 8.7 2.7 1.1 59 3.1 WSW 22 35 12 19 1022.7 1022.7 0.0
19/10:30am 8.2 2.2 1.1 61 2.9 SW 22 30 12 16 1022.7 1022.7 0.0
19/10:00am 8.0 1.3 1.2 62 2.7 WSW 26 35 14 19 1022.7 1022.7 0.0
19/09:30am 8.3 2.1 1.9 64 2.6 W 24 32 13 17 1022.6 1022.6 0.0
19/09:00am 7.7 1.8 1.5 65 2.5 W 22 33 12 18 1022.4 1022.4 6.8
19/08:30am 7.0 1.0 1.3 67 2.3 W 22 32 12 17 1022.3 1022.3 6.8
19/08:00am 6.2 3.1 1.3 71 1.9 W 7 13 4 7 1022.2 1022.2 6.8
19/07:30am 5.4 1.8 0.8 72 1.8 W 9 15 5 8 1022.0 1022.0 6.8
19/07:00am 5.4 1.1 0.8 72 1.8 WNW 13 20 7 11 1021.5 1021.5 6.8
19/06:30am 5.3 0.6 1.1 74 1.6 WSW 15 22 8 12 1021.0 1021.0 6.8
19/06:00am 5.6 -0.7 1.5 75 1.6 W 24 30 13 16 1020.6 1020.6 6.8
19/05:30am 5.3 -0.7 1.2 75 1.6 W 22 28 12 15 1020.3 1020.3 6.8
19/05:00am 5.5 -1.9 2.0 78 1.4 WSW 30 35 16 19 1020.0 1020.0 6.8
19/04:30am 5.6 -1.1 1.3 74 1.7 WSW 26 33 14 18 1019.7 1019.7 6.8
19/04:00am 6.2 -0.6 0.5 67 2.2 WSW 26 33 14 18 1019.4 1019.4 6.8
19/03:30am 6.5 2.4 -0.2 62 2.6 SW 11 17 6 9 1019.0 1019.0 6.8
19/03:00am 6.5 0.8 -0.5 61 2.7 SW 19 26 10 14 1018.7 1018.7 6.8
19/02:30am 6.6 0.4 -0.4 61 2.7 SW 22 30 12 16 1018.4 1018.4 6.8
19/02:00am 6.4 0.2 -0.3 62 2.6 SW 22 30 12 16 1018.0 1018.0 6.8
19/01:30am 6.4 0.7 -0.6 61 2.7 SW 19 26 10 14 1017.9 1017.9 6.8
19/01:00am 6.4 -0.1 0.1 64 2.4 SW 24 35 13 19 1017.6 1017.6 6.8
19/12:30am 6.5 0.3 0.0 63 2.5 SW 22 33 12 18 1017.2 1017.2 6.8
19/12:00am 5.8 1.1 1.2 72 1.8 SW 15 26 8 14 1016.8 1016.8 6.8
 
Date/Time
EST
Temp
°C
App
Temp
°C
Dew
Point
°C
Rel
Hum
%
Delta-T
°C
Wind Press
QNH
hPa
Press
MSL
hPa
Rain since
9am
mm
Dir  Spd
km/h
Gust
km/h
Spd
kts
Gust
kts
18/11:30pm 5.0 1.7 2.2 82 1.1 SSW 9 13 5 7 1016.9 1016.9 6.8
18/11:00pm 5.7 0.2 1.8 76 1.6 SW 20 28 11 15 1016.6 1016.6 6.4
18/10:30pm 5.1 1.0 2.1 81 1.2 SW 13 26 7 14 1016.3 1016.3 6.4
18/10:00pm 5.4 -0.8 2.4 81 1.2 SW 24 33 13 18 1016.1 1016.1 6.4
18/09:30pm 5.3 -1.7 2.0 79 1.3 SW 28 37 15 20 1015.6 1015.6 6.4
18/09:00pm 5.4 0.5 1.9 78 1.4 SSW 17 28 9 15 1015.2 1015.2 6.4
18/08:30pm 6.2 0.7 0.9 69 2.1 SW 19 32 10 17 1014.5 1014.5 6.0
18/08:06pm 5.9 -1.6 1.2 72 1.9 SW 30 50 16 27 1014.1 1014.1 6.0
18/08:00pm 6.4 -1.4 1.5 71 2.0 SW 32 50 17 27 1013.9 1013.9 6.0
18/07:56pm 6.4 -1.1 1.1 69 2.1 WSW 30 48 16 26 1013.8 1013.8 6.0
18/07:30pm 5.8 0.4 2.4 79 1.4 WSW 20 26 11 14 1013.5 1013.5 6.0
18/07:00pm 5.8 0.6 2.6 80 1.3 SW 19 26 10 14 1013.1 1013.1 6.0
18/06:30pm 6.0 1.7 3.0 81 1.2 SW 15 24 8 13 1012.6 1012.6 6.0
18/06:00pm 5.4 1.0 2.6 82 1.1 SSW 15 24 8 13 1011.7 1011.7 6.0
18/05:30pm 4.9 0.9 3.1 88 0.7 SW 13 19 7 10 1010.9 1010.9 6.0
18/05:00pm 4.9 -0.4 3.1 88 0.7 WSW 20 28 11 15 1010.2 1010.2 5.6
18/04:30pm 5.5 0.2 3.0 84 1.0 SW 20 30 11 16 1009.7 1009.7 3.8

Other Formats:

Comma delimited format used in spreadsheet applications
http://www.bom.gov.au/fwo/IDT60801/IDT60801.94988.axf

JavaScript Object Notation format (JSON) in row-major order
http://www.bom.gov.au/fwo/IDT60801/IDT60801.94988.json